Time;durP1;ratioP1;P1;durP2;ratioP2;P2;SDS_P1;SDS_P2;PMS_P1;PMS_P2;Temp;Humidity;BMP_temperature;BMP_pressure;BME280_temperature;BME280_humidity;BME280_pressure;Samples;Min_cycle;Max_cycle;Signal;HPM_P1;HPM_P2
2022/11/30 00:00:39;;;;;;;23.80;8.23;;;;;;;4.87;81.24;100886.97;4991244;28;20092;-50
2022/11/30 00:03:07;;;;;;;27.77;7.45;;;;;;;4.88;81.92;100891.28;4994110;28;20129;-51
2022/11/30 00:05:34;;;;;;;28.30;8.00;;;;;;;4.92;81.71;100896.50;4995139;28;20054;-54
2022/11/30 00:08:00;;;;;;;28.42;8.20;;;;;;;4.93;81.04;100878.59;4996034;28;20081;-52
2022/11/30 00:10:27;;;;;;;33.75;9.10;;;;;;;4.97;81.13;100879.59;5002540;28;20046;-53
2022/11/30 00:12:53;;;;;;;22.65;6.18;;;;;;;4.99;81.39;100881.38;5001132;28;20538;-52
2022/11/30 00:15:20;;;;;;;25.58;8.35;;;;;;;5.01;81.31;100876.31;4998335;28;20042;-55
2022/11/30 00:17:47;;;;;;;20.50;6.82;;;;;;;4.98;81.50;100883.88;5000988;28;20050;-50
2022/11/30 00:20:14;;;;;;;26.02;7.80;;;;;;;4.97;81.37;100880.44;5001560;28;20589;-53
2022/11/30 00:22:41;;;;;;;17.50;6.47;;;;;;;4.97;81.90;100879.59;4997492;28;20132;-52
2022/11/30 00:25:08;;;;;;;15.98;5.95;;;;;;;4.98;81.28;100876.19;5002084;28;20207;-54
2022/11/30 00:27:35;;;;;;;18.00;5.97;;;;;;;4.99;81.47;100883.06;5001039;28;20646;-56
2022/11/30 00:30:02;;;;;;;16.90;6.45;;;;;;;5.02;80.90;100878.03;5002220;28;20046;-56
2022/11/30 00:32:29;;;;;;;14.55;5.90;;;;;;;5.06;81.84;100885.03;5000456;28;20708;-53
2022/11/30 00:34:55;;;;;;;17.13;4.32;;;;;;;5.09;81.81;100881.66;4987804;28;20567;-53
2022/11/30 00:37:22;;;;;;;17.58;6.70;;;;;;;5.10;81.71;100876.59;4987305;28;20129;-54
2022/11/30 00:39:49;;;;;;;15.27;6.65;;;;;;;5.12;80.85;100879.22;4987758;28;20042;-52
2022/11/30 00:42:15;;;;;;;15.32;6.43;;;;;;;5.13;81.80;100876.69;4985874;28;20042;-53
2022/11/30 00:44:42;;;;;;;21.15;6.45;;;;;;;5.14;80.67;100870.72;4977388;28;20074;-51
2022/11/30 00:47:08;;;;;;;14.90;6.38;;;;;;;5.17;81.27;100866.53;4979027;28;20050;-52
2022/11/30 00:49:35;;;;;;;13.48;5.32;;;;;;;5.17;80.97;100869.09;4985288;28;20105;-50
2022/11/30 00:52:02;;;;;;;14.85;6.65;;;;;;;5.18;81.48;100864.03;4966334;28;20765;-53
2022/11/30 00:54:29;;;;;;;13.75;7.28;;;;;;;5.21;81.47;100873.50;4979934;28;20155;-50
2022/11/30 00:56:55;;;;;;;14.73;5.88;;;;;;;5.23;81.49;100871.84;4983202;28;20132;-53
2022/11/30 00:59:22;;;;;;;15.18;6.13;;;;;;;5.24;80.55;100871.06;4987018;28;20042;-53
2022/11/30 01:01:48;;;;;;;18.58;7.65;;;;;;;5.28;80.76;100870.31;4983980;28;20073;-51
2022/11/30 01:04:15;;;;;;;15.93;6.63;;;;;;;5.29;80.89;100856.66;4988789;28;20054;-49
2022/11/30 01:06:42;;;;;;;16.60;7.13;;;;;;;5.33;81.39;100858.50;4983694;28;20042;-56
2022/11/30 01:09:08;;;;;;;20.27;6.88;;;;;;;5.34;80.39;100855.09;4984291;28;20082;-55
2022/11/30 01:11:35;;;;;;;16.98;6.85;;;;;;;5.37;81.63;100855.19;4985772;28;20132;-53
2022/11/30 01:14:02;;;;;;;18.20;6.13;;;;;;;5.39;80.54;100861.25;4980822;28;20050;-53
2022/11/30 01:16:31;;;;;;;17.33;6.70;;;;;;;5.42;81.27;100857.91;4981114;28;20087;-50
2022/11/30 01:18:58;;;;;;;13.98;4.20;;;;;;;5.44;81.12;100865.69;4966077;28;20752;-56
2022/11/30 01:21:27;;;;;;;15.57;7.38;;;;;;;5.44;80.65;100865.69;4981581;28;20046;-54
2022/11/30 01:23:55;;;;;;;16.17;6.28;;;;;;;5.45;80.60;100867.41;4986273;28;20077;-53
2022/11/30 01:26:23;;;;;;;16.00;6.53;;;;;;;5.46;80.61;100858.88;5017786;28;20104;-53
2022/11/30 01:28:52;;;;;;;15.00;6.43;;;;;;;5.48;80.94;100863.25;5013249;28;20053;-55
2022/11/30 01:31:22;;;;;;;16.55;6.70;;;;;;;5.48;80.20;100862.38;4980168;28;20053;-56
2022/11/30 01:33:54;;;;;;;19.23;6.50;;;;;;;5.50;80.52;100858.13;4982793;28;20066;-51
2022/11/30 01:36:24;;;;;;;18.02;7.85;;;;;;;5.52;80.44;100859.06;4985476;28;20077;-54
2022/11/30 01:38:55;;;;;;;19.38;7.15;;;;;;;5.52;80.97;100861.66;4985455;28;20050;-49
2022/11/30 01:41:26;;;;;;;16.95;6.63;;;;;;;5.51;80.79;100868.47;4981713;28;20066;-53
2022/11/30 01:43:56;;;;;;;21.38;6.13;;;;;;;5.51;81.13;100875.31;4987500;28;20054;-55
2022/11/30 01:46:45;;;;;;;15.15;5.43;;;;;;;5.49;80.87;100870.13;4982447;28;21098;-53
2022/11/30 01:49:17;;;;;;;23.40;6.80;;;;;;;5.53;80.01;100876.22;5003242;28;20474;-52
2022/11/30 01:51:50;;;;;;;19.10;6.82;;;;;;;5.55;80.86;100873.72;4977787;28;21042;-51
2022/11/30 01:54:22;;;;;;;18.50;6.35;;;;;;;5.55;80.75;100879.75;5004936;28;20078;-53
2022/11/30 01:56:54;;;;;;;15.70;7.00;;;;;;;5.55;79.87;100879.75;4979966;28;20133;-53
2022/11/30 01:59:23;;;;;;;17.33;6.80;;;;;;;5.55;81.04;100869.47;5010755;28;20153;-52
2022/11/30 02:01:52;;;;;;;18.90;6.68;;;;;;;5.53;80.69;100873.66;5007019;28;20491;-54
2022/11/30 02:04:27;;;;;;;20.05;7.75;;;;;;;5.52;81.00;100869.34;4977434;28;20047;-52
2022/11/30 02:06:56;;;;;;;24.42;7.10;;;;;;;5.50;79.89;100871.00;4978517;28;20133;-54
2022/11/30 02:09:25;;;;;;;22.67;7.25;;;;;;;5.50;79.91;100871.00;4976997;28;20077;-57
2022/11/30 02:11:52;;;;;;;20.15;7.30;;;;;;;5.50;80.90;100865.84;4994464;28;20058;-50
2022/11/30 02:29:22;;;;;;;23.95;6.18;;;;;;;5.72;79.42;100871.66;5045545;28;20387;-55
2022/11/30 02:32:14;;;;;;;22.02;5.45;;;;;;;5.70;80.77;100874.19;5013515;28;20528;-52
2022/11/30 02:34:42;;;;;;;18.35;5.40;;;;;;;5.69;80.71;100874.13;5018569;28;20129;-53
2022/11/30 02:37:12;;;;;;;18.70;4.95;;;;;;;5.68;79.76;100881.00;5031783;28;20048;-52
2022/11/30 02:39:39;;;;;;;23.75;5.72;;;;;;;5.67;79.93;100881.78;5012518;28;20042;-53
2022/11/30 02:42:11;;;;;;;22.52;5.70;;;;;;;5.66;80.38;100878.38;5008514;28;20052;-54
2022/11/30 02:44:40;;;;;;;19.05;5.78;;;;;;;5.66;79.59;100878.38;5018417;28;20659;-53
2022/11/30 02:52:25;;;;;;;25.05;5.93;;;;;;;5.63;80.53;100875.69;5044680;28;20421;-56
2022/11/30 02:54:58;;;;;;;25.33;5.63;;;;;;;5.62;79.82;100871.41;4980138;28;20069;-55
2022/11/30 02:57:24;;;;;;;28.90;7.28;;;;;;;5.62;79.89;100876.53;4987860;28;20116;-56
2022/11/30 02:59:51;;;;;;;21.17;6.38;;;;;;;5.61;80.74;100874.75;4977389;28;20147;-55
2022/11/30 03:02:18;;;;;;;24.50;6.32;;;;;;;5.61;80.63;100874.75;4985025;28;20749;-50
2022/11/30 03:04:44;;;;;;;23.92;6.20;;;;;;;5.60;80.49;100879.84;4984784;28;20121;-52
2022/11/30 03:07:11;;;;;;;25.23;8.05;;;;;;;5.58;80.97;100879.84;4985217;28;20059;-56
2022/11/30 03:09:38;;;;;;;22.33;5.93;;;;;;;5.59;79.85;100879.00;4982103;28;20149;-53
2022/11/30 03:12:05;;;;;;;27.80;6.65;;;;;;;5.60;80.04;100875.59;4977478;28;20506;-54
2022/11/30 03:14:31;;;;;;;33.53;7.05;;;;;;;5.60;80.95;100873.03;4972083;28;20063;-55
2022/11/30 03:16:58;;;;;;;24.70;6.95;;;;;;;5.60;80.79;100875.59;4976944;28;20685;-53
2022/11/30 03:19:25;;;;;;;29.33;7.00;;;;;;;5.60;79.75;100874.72;4987167;28;20081;-56
2022/11/30 03:21:51;;;;;;;29.38;7.22;;;;;;;5.60;79.33;100870.47;4986011;28;20142;-51
2022/11/30 03:24:18;;;;;;;24.25;6.57;;;;;;;5.62;80.10;100871.41;4989759;28;20074;-56
2022/11/30 03:26:45;;;;;;;25.83;6.28;;;;;;;5.62;80.67;100876.53;4977686;28;20074;-50
2022/11/30 03:29:11;;;;;;;33.92;7.32;;;;;;;5.63;80.20;100877.38;4975674;28;20095;-55
2022/11/30 03:31:38;;;;;;;29.58;7.75;;;;;;;5.61;80.62;100869.63;4987537;28;20082;-49
2022/11/30 03:34:04;;;;;;;22.60;6.72;;;;;;;5.61;80.54;100877.34;4988168;28;20077;-55
2022/11/30 03:36:31;;;;;;;26.70;7.18;;;;;;;5.61;79.57;100876.47;4977072;28;20801;-50
2022/11/30 03:38:57;;;;;;;27.58;6.57;;;;;;;5.61;79.78;100874.75;4986889;28;20050;-50
2022/11/30 03:41:24;;;;;;;27.60;8.27;;;;;;;5.61;79.48;100874.75;4985115;28;20406;-54
2022/11/30 03:43:51;;;;;;;23.05;6.88;;;;;;;5.61;80.20;100879.06;4980455;28;20642;-52
2022/11/30 03:46:17;;;;;;;25.35;7.50;;;;;;;5.61;80.76;100879.91;4968696;28;20081;-51
2022/11/30 03:48:44;;;;;;;26.60;5.90;;;;;;;5.61;80.71;100882.47;4968750;28;20082;-56
2022/11/30 03:51:12;;;;;;;31.20;7.32;;;;;;;5.63;80.28;100882.53;4977264;28;20130;-54
2022/11/30 03:53:39;;;;;;;27.42;6.18;;;;;;;5.62;80.46;100876.53;4971681;28;20134;-51
2022/11/30 03:56:08;;;;;;;25.55;6.78;;;;;;;5.63;79.40;100878.28;4975687;28;20084;-55
2022/11/30 03:58:35;;;;;;;24.95;6.30;;;;;;;5.64;80.17;100879.16;4978382;28;20133;-49
2022/11/30 04:01:23;;;;;;;21.35;6.47;;;;;;;5.62;79.62;100886.81;4990119;28;20129;-54
2022/11/30 04:03:51;;;;;;;23.67;8.00;;;;;;;5.64;80.65;100895.44;4986860;28;20416;-52
2022/11/30 04:06:18;;;;;;;25.52;7.07;;;;;;;5.66;80.76;100887.78;4978778;28;20589;-52
2022/11/30 04:08:45;;;;;;;26.88;7.55;;;;;;;5.67;80.88;100889.50;4973800;28;20056;-54
2022/11/30 04:11:12;;;;;;;25.88;7.07;;;;;;;5.65;80.47;100891.19;4974801;28;20086;-54
2022/11/30 04:13:39;;;;;;;22.30;8.38;;;;;;;5.66;80.60;100898.94;4972597;28;20089;-49
2022/11/30 04:16:07;;;;;;;27.00;6.57;;;;;;;5.67;79.59;100894.66;4967960;28;20181;-56
2022/11/30 04:18:35;;;;;;;26.48;8.23;;;;;;;5.68;79.76;100900.66;4978722;28;20046;-54
2022/11/30 04:21:02;;;;;;;25.67;6.72;;;;;;;5.66;79.81;100893.78;4975810;28;20054;-55
2022/11/30 04:23:32;;;;;;;28.92;7.30;;;;;;;5.66;80.63;100898.94;4977324;28;20077;-54
2022/11/30 04:25:58;;;;;;;31.48;6.95;;;;;;;5.66;80.84;100904.06;4978221;28;20057;-50
2022/11/30 04:28:25;;;;;;;23.98;6.45;;;;;;;5.65;79.63;100912.59;4981521;28;20439;-54
2022/11/30 04:30:53;;;;;;;27.88;6.90;;;;;;;5.65;79.57;100907.44;4973506;28;20078;-56
2022/11/30 04:33:19;;;;;;;27.77;7.03;;;;;;;5.66;80.66;100909.22;4973943;28;20086;-51
2022/11/30 04:35:50;;;;;;;22.67;6.80;;;;;;;5.66;80.45;100908.34;4976411;28;20071;-54
2022/11/30 04:38:16;;;;;;;;;;;;;;;5.59;80.17;100909.84;4978923;28;20145;-56
2022/11/30 04:40:43;;;;;;;23.20;6.40;;;;;;;5.63;81.13;100906.53;4977087;28;20405;-53
2022/11/30 04:43:10;;;;;;;25.13;7.53;;;;;;;5.63;80.30;100914.25;4977009;28;20380;-51
2022/11/30 04:45:38;;;;;;;27.42;7.28;;;;;;;5.63;80.95;100916.81;4979957;28;20074;-57
2022/11/30 04:48:05;;;;;;;23.77;7.13;;;;;;;5.62;79.95;100912.53;4977309;28;20141;-47
2022/11/30 04:50:32;;;;;;;27.33;7.82;;;;;;;5.63;79.66;100924.53;4970394;28;20039;-54
2022/11/30 04:52:59;;;;;;;31.40;7.90;;;;;;;5.63;79.30;100916.81;4976238;28;20152;-55
2022/11/30 04:55:25;;;;;;;28.90;7.50;;;;;;;5.63;80.26;100929.69;4977212;28;20708;-52
2022/11/30 04:57:52;;;;;;;29.60;8.45;;;;;;;5.64;79.53;100931.41;4975272;28;20138;-52
2022/11/30 05:00:19;;;;;;;28.70;8.18;;;;;;;5.65;80.60;100922.88;4976455;28;20574;-51
2022/11/30 05:02:46;;;;;;;34.65;7.65;;;;;;;5.65;79.53;100933.16;4977565;28;20046;-51
2022/11/30 05:05:18;;;;;;;32.60;7.47;;;;;;;5.65;80.22;100932.31;4976582;28;20051;-54
2022/11/30 05:07:50;;;;;;;32.00;8.73;;;;;;;5.66;80.66;100934.91;4971588;28;20399;-54
2022/11/30 05:10:17;;;;;;;33.28;8.68;;;;;;;5.68;80.02;100931.53;4981270;28;20076;-54
2022/11/30 05:12:44;;;;;;;32.28;7.63;;;;;;;5.69;80.94;100928.13;4981988;28;20089;-56
2022/11/30 05:15:11;;;;;;;33.50;8.27;;;;;;;5.70;81.11;100929.84;4979694;28;20109;-51
2022/11/30 05:17:38;;;;;;;35.97;8.65;;;;;;;5.71;79.76;100941.91;4968438;28;20109;-54
2022/11/30 05:20:05;;;;;;;38.40;8.98;;;;;;;5.71;80.45;100936.75;4982243;28;20125;-53
2022/11/30 05:22:34;;;;;;;41.67;8.65;;;;;;;5.72;79.82;100935.94;4980715;28;20073;-51
2022/11/30 05:25:00;;;;;;;48.38;9.13;;;;;;;5.73;80.25;100940.25;4982784;28;20052;-54
2022/11/30 05:27:27;;;;;;;37.38;8.60;;;;;;;5.74;81.04;100936.88;4985982;28;20054;-53
2022/11/30 05:29:54;;;;;;;41.20;9.77;;;;;;;5.75;80.50;100943.75;4976894;28;20105;-54
2022/11/30 05:32:20;;;;;;;32.42;8.57;;;;;;;5.76;79.94;100942.91;4980279;28;20133;-54
2022/11/30 05:34:47;;;;;;;47.65;9.43;;;;;;;5.78;80.18;100943.84;4980242;28;20495;-51
2022/11/30 05:37:18;;;;;;;45.47;9.35;;;;;;;5.80;81.01;100947.31;4969916;28;20128;-57
2022/11/30 05:39:45;;;;;;;39.15;9.18;;;;;;;5.81;79.88;100949.06;4975802;28;20167;-52
2022/11/30 05:42:11;;;;;;;36.47;8.98;;;;;;;5.83;80.61;100952.56;4975954;28;20510;-53
2022/11/30 05:44:38;;;;;;;51.67;10.65;;;;;;;5.84;79.99;100949.16;4980601;28;20146;-54
2022/11/30 05:47:05;;;;;;;49.13;9.82;;;;;;;5.87;80.55;100953.53;4971005;28;20122;-54
2022/11/30 05:49:32;;;;;;;53.65;9.63;;;;;;;5.87;80.56;100953.53;4977755;28;20050;-49
2022/11/30 05:51:58;;;;;;;52.03;8.85;;;;;;;5.87;79.37;100959.56;4975339;28;20042;-51
2022/11/30 05:54:25;;;;;;;36.92;8.05;;;;;;;5.89;80.99;100964.75;4979783;28;20046;-54
2022/11/30 05:56:51;;;;;;;52.88;10.20;;;;;;;5.88;79.63;100963.84;4975295;28;20055;-56
2022/11/30 05:59:21;;;;;;;41.80;8.60;;;;;;;5.88;79.37;100958.72;4979508;28;20454;-52
2022/11/30 06:01:50;;;;;;;51.97;8.90;;;;;;;5.88;80.30;100958.72;4978611;28;20092;-53
2022/11/30 06:04:16;;;;;;;51.35;9.93;;;;;;;5.88;80.32;100960.44;4982752;28;20054;-55
2022/11/30 06:06:43;;;;;;;40.63;8.63;;;;;;;5.88;79.57;100961.28;4980594;28;20047;-51
2022/11/30 06:09:10;;;;;;;44.75;9.75;;;;;;;5.88;80.52;100963.84;4978360;28;20050;-52
2022/11/30 06:11:36;;;;;;;59.25;9.88;;;;;;;5.91;80.00;100966.53;4976042;28;20141;-53
2022/11/30 06:14:03;;;;;;;50.05;8.68;;;;;;;5.91;79.59;100966.53;4976915;28;20055;-56
2022/11/30 06:16:29;;;;;;;58.10;9.38;;;;;;;5.94;80.89;100957.19;4975321;28;20491;-50
2022/11/30 06:18:56;;;;;;;55.03;8.27;;;;;;;5.94;80.97;100970.03;4973151;28;20704;-51
2022/11/30 06:21:23;;;;;;;95.47;8.60;;;;;;;5.92;80.24;100973.41;4971006;28;20081;-54
2022/11/30 06:23:51;;;;;;;88.47;9.52;;;;;;;5.92;79.47;100978.56;4979635;28;20101;-51
2022/11/30 06:26:17;;;;;;;115.13;10.70;;;;;;;5.92;80.56;100981.13;4977238;28;20569;-55
2022/11/30 06:28:44;;;;;;;51.15;8.43;;;;;;;5.92;80.91;100983.69;4981168;28;20059;-55
2022/11/30 06:31:14;;;;;;;73.57;9.63;;;;;;;5.95;80.91;100987.22;4976096;28;20061;-52
2022/11/30 06:33:41;;;;;;;71.60;9.07;;;;;;;5.96;81.03;100983.81;4978504;28;20057;-53
2022/11/30 06:36:08;;;;;;;80.70;9.73;;;;;;;5.96;81.14;100984.69;4975559;28;20109;-56
2022/11/30 06:38:34;;;;;;;83.85;8.75;;;;;;;5.96;80.97;100978.66;4973079;28;20078;-55
2022/11/30 06:41:07;;;;;;;114.03;9.35;;;;;;;5.95;80.25;100976.91;4976753;28;20506;-51
2022/11/30 06:43:35;;;;;;;127.22;11.00;;;;;;;5.91;79.57;100975.94;4973680;28;20501;-53
2022/11/30 06:46:03;;;;;;;133.50;9.63;;;;;;;5.89;80.13;100982.75;4971159;28;20046;-54
2022/11/30 06:48:30;;;;;;;114.70;9.90;;;;;;;5.85;80.97;100970.63;4978120;28;20181;-54
2022/11/30 06:50:57;;;;;;;138.27;11.05;;;;;;;5.82;81.02;100970.50;4972274;28;20475;-54
2022/11/30 06:53:24;;;;;;;110.00;9.40;;;;;;;5.78;80.07;100990.97;4967790;28;20042;-54
2022/11/30 06:55:52;;;;;;;130.82;9.57;;;;;;;5.78;79.85;100995.25;4969146;28;20054;-53
2022/11/30 06:58:18;;;;;;;113.63;10.15;;;;;;;5.75;80.09;100995.16;4980525;28;20502;-51
2022/11/30 07:00:45;;;;;;;78.00;10.18;;;;;;;5.77;80.18;100993.50;4974898;28;20050;-55
2022/11/30 07:03:13;;;;;;;129.55;9.65;;;;;;;5.80;81.64;100993.59;4980682;28;20074;-55
2022/11/30 07:05:43;;;;;;;49.53;8.10;;;;;;;5.82;81.13;100991.09;4978177;28;20046;-53
2022/11/30 07:08:11;;;;;;;128.82;10.70;;;;;;;5.82;81.00;100991.97;4974813;28;20089;-54
2022/11/30 07:10:40;;;;;;;119.22;10.13;;;;;;;5.81;81.38;100985.06;4979818;28;20165;-53
2022/11/30 07:13:09;;;;;;;126.80;9.85;;;;;;;5.83;80.98;100993.69;4982697;28;20046;-56
2022/11/30 07:15:37;;;;;;;124.80;11.73;;;;;;;5.82;80.34;100991.97;4977756;28;20074;-50
2022/11/30 07:18:04;;;;;;;73.43;10.73;;;;;;;5.81;80.35;100994.47;4970910;28;20613;-53
2022/11/30 07:20:31;;;;;;;48.00;9.57;;;;;;;5.79;80.12;100997.00;4972785;28;20086;-54
2022/11/30 07:26:05;;;;;;;44.55;9.50;;;;;;;5.81;81.28;100995.34;4969229;28;20389;-51
2022/11/30 07:28:34;;;;;;;50.22;9.93;;;;;;;5.85;81.42;100994.63;4965606;28;20058;-53
2022/11/30 07:31:12;;;;;;;44.28;8.20;;;;;;;5.85;80.66;101004.03;4954981;28;20046;-57
2022/11/30 07:33:42;;;;;;;51.47;7.82;;;;;;;5.85;81.86;101007.50;4973874;28;20050;-52
2022/11/30 07:36:09;;;;;;;49.15;7.95;;;;;;;5.87;80.58;101015.22;4973243;28;20113;-54
2022/11/30 07:38:37;;;;;;;43.38;8.13;;;;;;;5.88;81.43;101011.84;4974425;28;20111;-52
2022/11/30 07:41:03;;;;;;;52.42;9.30;;;;;;;5.89;81.08;101024.78;4969888;28;20054;-51
2022/11/30 07:43:30;;;;;;;40.88;8.73;;;;;;;5.90;80.60;101023.94;4974514;28;20060;-56
2022/11/30 07:45:57;;;;;;;45.78;9.48;;;;;;;5.90;81.67;101026.50;4980677;28;20085;-54
2022/11/30 07:48:24;;;;;;;51.10;8.23;;;;;;;5.90;80.52;101025.63;4976668;28;20116;-55
2022/11/30 07:50:51;;;;;;;51.75;7.90;;;;;;;5.92;81.84;101035.13;4976260;28;20097;-54
2022/11/30 07:53:17;;;;;;;44.83;9.48;;;;;;;5.94;81.05;101044.59;4976203;28;20691;-57
2022/11/30 07:55:44;;;;;;;42.10;7.28;;;;;;;5.94;82.21;101042.91;4977692;28;20152;-51
2022/11/30 07:58:11;;;;;;;41.25;8.63;;;;;;;5.94;81.46;101052.31;4978271;28;20081;-56
2022/11/30 08:00:42;;;;;;;38.80;7.85;;;;;;;5.95;81.32;101044.66;4973555;28;20141;-54
2022/11/30 08:03:09;;;;;;;44.88;9.18;;;;;;;5.92;81.10;101050.56;4976021;28;20052;-52
2022/11/30 08:05:36;;;;;;;43.58;8.18;;;;;;;5.89;81.42;101055.63;4979006;28;20074;-52
2022/11/30 08:08:02;;;;;;;38.10;7.85;;;;;;;5.90;81.24;101057.38;4979994;28;20518;-51
2022/11/30 08:10:29;;;;;;;39.17;9.13;;;;;;;5.85;81.49;101064.06;4977292;28;20094;-52
2022/11/30 08:12:56;;;;;;;34.80;8.50;;;;;;;5.79;82.85;101058.69;4974937;28;20133;-55
2022/11/30 08:15:22;;;;;;;41.22;8.85;;;;;;;5.78;82.27;101068.09;4971636;28;20077;-50
2022/11/30 08:18:03;;;;;;;40.40;7.85;;;;;;;5.78;81.91;101056.97;4973964;28;20052;-55
2022/11/30 08:20:30;;;;;;;44.97;9.82;;;;;;;5.80;81.88;101065.59;4977605;28;20078;-55
2022/11/30 08:22:57;;;;;;;43.67;8.43;;;;;;;5.85;83.30;101058.91;4974716;28;20124;-57
2022/11/30 08:25:24;;;;;;;40.00;7.95;;;;;;;5.76;82.44;101066.31;4975044;28;20170;-57
2022/11/30 08:27:50;;;;;;;28.48;7.57;;;;;;;5.74;83.32;101070.53;4980876;28;20055;-59
2022/11/30 08:30:17;;;;;;;34.75;9.15;;;;;;;5.80;83.74;101070.72;4977781;28;20082;-57
2022/11/30 08:32:44;;;;;;;34.30;7.70;;;;;;;5.76;83.28;101074.91;4978560;28;20050;-54
2022/11/30 08:35:10;;;;;;;42.42;8.18;;;;;;;5.81;82.28;101072.47;4972677;28;20141;-52
2022/11/30 08:37:37;;;;;;;35.90;9.25;;;;;;;5.81;83.17;101067.31;4977139;28;20277;-56
2022/11/30 08:40:05;;;;;;;39.30;8.98;;;;;;;5.79;82.38;101075.00;4975366;28;20068;-54
2022/11/30 08:42:31;;;;;;;48.80;10.15;;;;;;;5.80;82.41;101065.59;4982591;28;20066;-53
2022/11/30 08:44:58;;;;;;;39.78;7.95;;;;;;;5.82;82.12;101066.53;4982660;28;20283;-56
2022/11/30 08:47:25;;;;;;;36.05;7.35;;;;;;;5.81;83.24;101067.31;4979918;28;20058;-54
2022/11/30 08:49:52;;;;;;;41.58;9.63;;;;;;;5.84;82.89;101072.56;4981171;28;20145;-55
2022/11/30 08:52:18;;;;;;;31.48;7.50;;;;;;;5.79;84.10;101074.13;4986190;28;20058;-56
2022/11/30 08:54:46;;;;;;;42.13;10.73;;;;;;;5.85;82.42;101069.22;4982869;28;20050;-51
2022/11/30 08:57:16;;;;;;;40.47;8.48;;;;;;;5.89;83.23;101080.44;4981731;28;20053;-54
2022/11/30 08:59:43;;;;;;;42.72;9.35;;;;;;;5.86;82.65;101073.50;4977717;28;20061;-55
2022/11/30 09:02:12;;;;;;;33.10;8.05;;;;;;;5.80;83.07;101075.88;4979952;28;20046;-56
2022/11/30 09:04:38;;;;;;;47.00;9.90;;;;;;;5.91;82.48;101074.53;4982742;28;20046;-54
2022/11/30 09:07:05;;;;;;;40.85;9.00;;;;;;;5.93;82.58;101082.31;4979872;28;20146;-50
2022/11/30 09:09:32;;;;;;;49.28;9.75;;;;;;;5.97;83.49;101083.25;4982244;28;20105;-56
2022/11/30 09:11:58;;;;;;;32.60;7.32;;;;;;;5.98;83.35;101085.88;4981758;28;20058;-52
2022/11/30 09:14:25;;;;;;;42.75;9.18;;;;;;;6.00;82.67;101088.50;4981525;28;20069;-51
2022/11/30 09:16:53;;;;;;;40.95;9.40;;;;;;;6.02;83.03;101086.88;4974184;28;20054;-55
2022/11/30 09:19:20;;;;;;;40.47;8.68;;;;;;;6.01;83.48;101091.13;4981562;28;20569;-56
2022/11/30 09:21:47;;;;;;;40.00;8.35;;;;;;;6.05;83.28;101094.72;4978243;28;20532;-56
2022/11/30 09:24:18;;;;;;;41.60;7.82;;;;;;;6.02;83.36;101098.03;4977343;28;20141;-55
2022/11/30 09:26:44;;;;;;;46.22;10.10;;;;;;;6.08;83.82;101092.22;4983348;28;20088;-53
2022/11/30 09:29:11;;;;;;;38.72;8.75;;;;;;;6.05;83.58;101092.16;4982724;28;20058;-52
2022/11/30 09:31:38;;;;;;;51.03;11.15;;;;;;;6.05;83.57;101092.16;4981807;28;20077;-57
2022/11/30 09:34:04;;;;;;;38.28;9.32;;;;;;;6.09;82.47;101094.00;4985216;28;20078;-55
2022/11/30 09:36:32;;;;;;;47.25;9.57;;;;;;;6.09;83.32;101094.00;4983769;28;20073;-56
2022/11/30 09:38:59;;;;;;;44.22;9.70;;;;;;;6.10;84.31;101095.75;4980081;28;20051;-55
2022/11/30 09:44:18;;;;;;;37.72;8.65;;;;;;;6.15;83.24;101099.34;5116587;27;20395;-52
2022/11/30 09:46:52;;;;;;;42.05;9.70;;;;;;;6.25;83.08;101097.06;5091660;28;20134;-55
2022/11/30 09:49:26;;;;;;;42.95;10.38;;;;;;;6.25;83.23;101094.50;5088843;28;20071;-53
2022/11/30 09:51:57;;;;;;;25.73;7.82;;;;;;;6.19;84.19;101104.59;5090375;28;20138;-58
2022/11/30 09:54:34;;;;;;;33.80;8.45;;;;;;;6.24;82.64;101103.03;5084874;28;20130;-54
2022/11/30 09:57:17;;;;;;;36.70;7.88;;;;;;;6.27;83.28;101103.13;5087492;28;20076;-55
2022/11/30 09:59:52;;;;;;;30.33;7.13;;;;;;;6.29;82.89;101104.91;5092821;28;20126;-50
2022/11/30 10:02:21;;;;;;;25.17;7.35;;;;;;;6.33;82.62;101112.75;5082865;28;20060;-57
2022/11/30 10:04:48;;;;;;;28.70;7.00;;;;;;;6.36;83.58;101118.88;5091576;27;20048;-51
2022/11/30 10:07:48;;;;;;;26.58;7.03;;;;;;;6.40;82.08;101106.97;5090978;28;20052;-57
2022/11/30 10:27:11;;;;;;;27.10;7.60;;;;;;;7.36;80.44;101115.78;5040677;27;20831;-56
2022/11/30 10:29:40;;;;;;;19.30;5.60;;;;;;;7.55;81.17;101109.41;5025153;28;20095;-55
2022/11/30 10:34:53;;;;;;;17.63;5.55;;;;;;;8.03;80.49;101109.75;5058907;28;20923;-58
2022/11/30 10:37:27;;;;;;;18.42;5.43;;;;;;;8.00;79.24;101115.72;5023017;28;20089;-56
2022/11/30 10:45:28;;;;;;;18.35;5.90;;;;;;;7.70;78.42;101116.69;5053610;27;20816;-57
2022/11/30 10:48:02;;;;;;;17.98;4.53;;;;;;;7.63;78.35;101119.94;5038014;28;20136;-59
2022/11/30 10:50:30;;;;;;;25.10;6.00;;;;;;;7.66;79.17;101120.88;5040759;28;20049;-58
2022/11/30 10:52:59;;;;;;;18.20;5.13;;;;;;;7.71;79.51;101119.28;5037815;28;20136;-54
2022/11/30 10:55:30;;;;;;;21.98;6.00;;;;;;;7.81;78.77;101116.97;5034877;28;20061;-53
2022/11/30 10:58:04;;;;;;;23.98;6.68;;;;;;;7.96;79.44;101119.06;5039129;28;20045;-56
2022/11/30 11:00:31;;;;;;;23.83;6.10;;;;;;;8.08;79.30;101123.66;5035761;28;20049;-58
2022/11/30 11:02:57;;;;;;;21.85;5.72;;;;;;;8.16;79.01;101119.56;5042267;28;20116;-57
2022/11/30 11:05:28;;;;;;;17.35;4.78;;;;;;;8.26;78.24;101117.19;5043227;28;20441;-60
2022/11/30 11:13:35;;;;;;;26.95;8.65;;;;;;;8.74;77.22;101126.94;5062700;28;20394;-50
2022/11/30 11:16:03;;;;;;;20.52;5.13;;;;;;;8.65;77.93;101131.91;5015827;28;20144;-56
2022/11/30 11:18:32;;;;;;;21.05;5.68;;;;;;;8.65;78.02;101125.88;5033374;28;20544;-53
2022/11/30 11:21:17;;;;;;;20.75;6.20;;;;;;;8.67;78.25;101135.41;5042131;28;20084;-54
2022/11/30 11:23:46;;;;;;;22.80;7.28;;;;;;;8.79;78.44;101139.09;5041873;28;20056;-52
2022/11/30 11:28:55;;;;;;;17.52;6.75;;;;;;;9.09;77.54;101143.19;5029182;28;20383;-52
2022/11/30 11:31:43;;;;;;;14.40;6.07;;;;;;;9.06;77.34;101151.75;5020077;28;20057;-58
2022/11/30 11:34:33;;;;;;;18.02;5.65;;;;;;;9.02;76.01;101147.34;4999600;28;20054;-57
2022/11/30 11:37:32;;;;;;;19.52;6.15;;;;;;;8.94;75.29;101149.78;5024341;28;20448;-51
2022/11/30 11:42:44;;;;;;;16.17;5.22;;;;;;;8.79;75.61;101152.00;5087535;27;20409;-55
2022/11/30 11:45:29;;;;;;;18.58;6.05;;;;;;;8.76;75.63;101155.41;5081300;28;20044;-54
2022/11/30 11:48:00;;;;;;;15.15;5.88;;;;;;;8.79;75.92;101157.19;5079124;28;20517;-56
2022/11/30 11:50:33;;;;;;;18.27;5.60;;;;;;;8.73;75.90;101158.81;5077791;28;20068;-58
2022/11/30 11:53:33;;;;;;;21.85;6.13;;;;;;;8.64;75.75;101158.56;5076574;28;20044;-59
2022/11/30 11:56:22;;;;;;;15.77;4.90;;;;;;;8.57;75.78;101157.56;5076999;28;20050;-55
2022/11/30 12:06:51;;;;;;;17.10;4.78;;;;;;;8.62;76.04;101137.00;5021528;28;20394;-54
2022/11/30 12:09:26;;;;;;;15.07;5.32;;;;;;;8.69;75.87;101144.06;5014498;28;20045;-54
2022/11/30 12:11:52;;;;;;;20.08;6.03;;;;;;;8.70;75.82;101139.75;5012490;28;20080;-56
2022/11/30 12:14:19;;;;;;;14.38;5.15;;;;;;;8.68;76.13;101142.31;5012106;28;20772;-60
2022/11/30 12:19:53;;;;;;;19.65;4.90;;;;;;;8.63;75.85;101143.91;5075389;27;20394;-59
2022/11/30 12:28:20;;;;;;;15.63;6.20;;;;;;;8.72;75.15;101149.28;5049804;27;20415;-58
2022/11/30 12:39:13;;;;;;;17.23;5.18;;;;;;;8.90;74.34;101158.28;5038696;27;20403;-55
2022/11/30 12:41:49;;;;;;;13.80;4.80;;;;;;;8.82;74.70;101149.50;5016941;28;20502;-60
2022/11/30 12:44:44;;;;;;;9.93;4.22;;;;;;;8.69;74.92;101148.34;5019976;28;20080;-57
2022/11/30 13:04:03;;;;;;;15.93;4.85;;;;;;;8.52;74.61;101156.56;5063262;27;20416;-59
2022/11/30 13:06:39;;;;;;;16.63;5.38;;;;;;;8.47;74.69;101164.19;5038467;28;20568;-54
2022/11/30 13:11:56;;;;;;;18.00;6.50;;;;;;;8.51;75.01;101165.13;5015066;27;20427;-58
2022/11/30 13:14:26;;;;;;;14.95;7.00;;;;;;;8.53;75.41;101167.75;4991424;28;20141;-53
2022/11/30 13:17:00;;;;;;;17.60;7.00;;;;;;;8.57;75.26;101169.59;5023460;28;20150;-56
2022/11/30 13:22:16;;;;;;;18.65;7.63;;;;;;;8.64;75.58;101168.91;5041895;28;20884;-52